Terminal Aerodrome Forecast
Issued by NWS

Home | Current Version | Previous Version | Graphics & Text | Print | Product List | Glossary On
Versions: 1 2 3 4 5 6 7 8 9 10 11 12 13 14 15 16 17 18
000
FTUS42 KMHX 230500
TAFPGV
TAF
KPGV 230521Z 2306/2406 00000KT P6SM BKN250
     FM231700 16007KT P6SM VCSH SCT025 BKN060
     FM232200 13010G16KT 4SM -SHRA BR OVC025
     FM240100 12012G18KT P6SM VCTS OVC015CB
      AMD LTD TO CLD VIS AND WIND=

USA.gov is the U.S. government's official web portal to all federal, state and local government web resources and services.